Port Mansfield, Texas
Current Conditions -  °F | °C
As of 3:52 PM on Monday 22 Dec 2014 (Local Time) from KHRL Reporting Station
Clear Clear  
Wind Chill: 26°   Ceiling: Unl
Heat Index: 27°   Visibility: 10mi
Dew Point: 18°   Wind: 7mph
Humidity: 62%   Direction: NA
Pressure: 29.63"   Gusts: NA
Location:  26.56°N, 97.43°W
Report Text: KHRL 222152Z VRB06KT 10SM CLR 26/18 A2963 RMK AO2 SLP034 T02610183
Loading
Personal Weather Stations






























Interactive Weather Map New forecast layout! Learn more

10-Day Weather Forecast

Advertisements
Track Severe Weather on mobile